sensor_id;sensor_type;location;lat;lon;timestamp;temperature;humidity
7030;DHT22;3556;53.500;10.176;2023-05-19T00:01:07;6.90;99.90
7030;DHT22;3556;53.500;10.176;2023-05-19T00:03:36;6.90;99.90
7030;DHT22;3556;53.500;10.176;2023-05-19T00:06:06;6.80;99.90
7030;DHT22;3556;53.500;10.176;2023-05-19T00:08:37;6.80;99.90
7030;DHT22;3556;53.500;10.176;2023-05-19T00:11:03;6.80;99.90
7030;DHT22;3556;53.500;10.176;2023-05-19T00:13:29;6.70;99.90
7030;DHT22;3556;53.500;10.176;2023-05-19T00:15:55;6.70;99.90
7030;DHT22;3556;53.500;10.176;2023-05-19T00:18:21;6.70;99.90
7030;DHT22;3556;53.500;10.176;2023-05-19T00:20:48;6.60;99.90
7030;DHT22;3556;53.500;10.176;2023-05-19T00:23:13;6.60;99.90
7030;DHT22;3556;53.500;10.176;2023-05-19T00:25:39;6.60;99.90
7030;DHT22;3556;53.500;10.176;2023-05-19T00:28:05;6.60;99.90
7030;DHT22;3556;53.500;10.176;2023-05-19T00:30:30;6.50;99.90
7030;DHT22;3556;53.500;10.176;2023-05-19T00:32:56;6.50;99.90
7030;DHT22;3556;53.500;10.176;2023-05-19T00:35:22;6.50;99.90
7030;DHT22;3556;53.500;10.176;2023-05-19T00:37:48;6.50;99.90
7030;DHT22;3556;53.500;10.176;2023-05-19T00:40:14;6.40;99.90
7030;DHT22;3556;53.500;10.176;2023-05-19T00:42:40;6.40;99.90
7030;DHT22;3556;53.500;10.176;2023-05-19T00:45:06;6.40;99.90
7030;DHT22;3556;53.500;10.176;2023-05-19T00:47:32;6.30;99.90
7030;DHT22;3556;53.500;10.176;2023-05-19T00:49:58;6.30;99.90
7030;DHT22;3556;53.500;10.176;2023-05-19T00:52:24;6.30;99.90
7030;DHT22;3556;53.500;10.176;2023-05-19T00:54:50;6.30;99.90
7030;DHT22;3556;53.500;10.176;2023-05-19T00:57:16;6.20;99.90
7030;DHT22;3556;53.500;10.176;2023-05-19T00:59:42;6.20;99.90
7030;DHT22;3556;53.500;10.176;2023-05-19T01:02:08;6.20;99.90
7030;DHT22;3556;53.500;10.176;2023-05-19T01:04:35;6.20;99.90
7030;DHT22;3556;53.500;10.176;2023-05-19T01:07:02;6.20;99.90
7030;DHT22;3556;53.500;10.176;2023-05-19T01:09:28;6.10;99.90
7030;DHT22;3556;53.500;10.176;2023-05-19T01:11:55;6.10;99.90
7030;DHT22;3556;53.500;10.176;2023-05-19T01:14:20;6.10;99.90
7030;DHT22;3556;53.500;10.176;2023-05-19T01:19:56;6.00;99.90
7030;DHT22;3556;53.500;10.176;2023-05-19T01:25:18;6.00;99.90
7030;DHT22;3556;53.500;10.176;2023-05-19T01:30:42;6.00;99.90
7030;DHT22;3556;53.500;10.176;2023-05-19T01:33:13;6.00;99.90
7030;DHT22;3556;53.500;10.176;2023-05-19T01:35:40;6.00;99.90
7030;DHT22;3556;53.500;10.176;2023-05-19T01:38:08;5.90;99.90
7030;DHT22;3556;53.500;10.176;2023-05-19T01:40:36;5.90;99.90
7030;DHT22;3556;53.500;10.176;2023-05-19T01:43:03;5.90;99.90
7030;DHT22;3556;53.500;10.176;2023-05-19T01:45:30;5.90;99.90
7030;DHT22;3556;53.500;10.176;2023-05-19T01:47:58;5.90;99.90
7030;DHT22;3556;53.500;10.176;2023-05-19T01:50:24;5.90;99.90
7030;DHT22;3556;53.500;10.176;2023-05-19T01:52:50;5.90;99.90
7030;DHT22;3556;53.500;10.176;2023-05-19T01:55:16;5.80;99.90
7030;DHT22;3556;53.500;10.176;2023-05-19T01:57:51;5.80;99.90
7030;DHT22;3556;53.500;10.176;2023-05-19T02:00:30;5.80;99.90
7030;DHT22;3556;53.500;10.176;2023-05-19T02:03:12;5.80;99.90
7030;DHT22;3556;53.500;10.176;2023-05-19T02:10:56;5.80;99.90
7030;DHT22;3556;53.500;10.176;2023-05-19T02:13:25;5.80;99.90
7030;DHT22;3556;53.500;10.176;2023-05-19T02:15:55;5.90;99.90
7030;DHT22;3556;53.500;10.176;2023-05-19T02:18:22;5.90;99.90
7030;DHT22;3556;53.500;10.176;2023-05-19T02:20:49;5.90;99.90
7030;DHT22;3556;53.500;10.176;2023-05-19T02:23:15;5.90;99.90
7030;DHT22;3556;53.500;10.176;2023-05-19T02:25:40;5.90;99.90
7030;DHT22;3556;53.500;10.176;2023-05-19T02:28:06;5.90;99.90
7030;DHT22;3556;53.500;10.176;2023-05-19T02:30:32;5.90;99.90
7030;DHT22;3556;53.500;10.176;2023-05-19T02:32:57;5.90;99.90
7030;DHT22;3556;53.500;10.176;2023-05-19T02:35:23;5.90;99.90
7030;DHT22;3556;53.500;10.176;2023-05-19T02:37:49;5.90;99.90
7030;DHT22;3556;53.500;10.176;2023-05-19T02:40:14;5.90;99.90
7030;DHT22;3556;53.500;10.176;2023-05-19T02:42:40;5.90;99.90
7030;DHT22;3556;53.500;10.176;2023-05-19T02:45:06;5.90;99.90
7030;DHT22;3556;53.500;10.176;2023-05-19T02:47:32;5.90;99.90
7030;DHT22;3556;53.500;10.176;2023-05-19T02:49:57;5.90;99.90
7030;DHT22;3556;53.500;10.176;2023-05-19T02:52:23;5.90;99.90
7030;DHT22;3556;53.500;10.176;2023-05-19T02:54:48;5.90;99.90
7030;DHT22;3556;53.500;10.176;2023-05-19T02:57:14;6.00;99.90
7030;DHT22;3556;53.500;10.176;2023-05-19T02:59:40;6.00;99.90
7030;DHT22;3556;53.500;10.176;2023-05-19T03:02:07;6.00;99.90
7030;DHT22;3556;53.500;10.176;2023-05-19T03:04:32;6.10;99.90
7030;DHT22;3556;53.500;10.176;2023-05-19T03:07:06;6.10;99.90
7030;DHT22;3556;53.500;10.176;2023-05-19T03:09:35;6.10;99.90
7030;DHT22;3556;53.500;10.176;2023-05-19T03:12:01;6.20;99.90
7030;DHT22;3556;53.500;10.176;2023-05-19T03:14:29;6.20;99.90
7030;DHT22;3556;53.500;10.176;2023-05-19T03:16:54;6.20;99.90
7030;DHT22;3556;53.500;10.176;2023-05-19T03:19:24;6.20;99.90
7030;DHT22;3556;53.500;10.176;2023-05-19T03:21:50;6.30;99.90
7030;DHT22;3556;53.500;10.176;2023-05-19T03:24:16;6.30;99.90
7030;DHT22;3556;53.500;10.176;2023-05-19T03:26:42;6.30;99.90
7030;DHT22;3556;53.500;10.176;2023-05-19T03:29:08;6.40;99.90
7030;DHT22;3556;53.500;10.176;2023-05-19T03:31:33;6.40;99.90
7030;DHT22;3556;53.500;10.176;2023-05-19T03:33:59;6.40;99.90
7030;DHT22;3556;53.500;10.176;2023-05-19T03:36:25;6.40;99.90
7030;DHT22;3556;53.500;10.176;2023-05-19T03:38:56;6.40;99.90
7030;DHT22;3556;53.500;10.176;2023-05-19T03:41:22;6.40;99.90
7030;DHT22;3556;53.500;10.176;2023-05-19T03:43:47;6.50;99.90
7030;DHT22;3556;53.500;10.176;2023-05-19T03:46:13;6.50;99.90
7030;DHT22;3556;53.500;10.176;2023-05-19T03:48:39;6.50;99.90
7030;DHT22;3556;53.500;10.176;2023-05-19T03:51:05;6.60;99.90
7030;DHT22;3556;53.500;10.176;2023-05-19T03:53:31;6.60;99.90
7030;DHT22;3556;53.500;10.176;2023-05-19T03:55:57;6.70;99.90
7030;DHT22;3556;53.500;10.176;2023-05-19T03:58:23;6.70;99.90
7030;DHT22;3556;53.500;10.176;2023-05-19T04:00:49;6.70;99.90
7030;DHT22;3556;53.500;10.176;2023-05-19T04:03:15;6.80;99.90
7030;DHT22;3556;53.500;10.176;2023-05-19T04:05:41;6.80;99.90
7030;DHT22;3556;53.500;10.176;2023-05-19T04:08:06;6.80;99.90
7030;DHT22;3556;53.500;10.176;2023-05-19T04:10:32;6.90;99.90
7030;DHT22;3556;53.500;10.176;2023-05-19T04:12:58;6.90;99.90
7030;DHT22;3556;53.500;10.176;2023-05-19T04:15:23;6.90;99.90
7030;DHT22;3556;53.500;10.176;2023-05-19T04:17:49;7.00;99.90
7030;DHT22;3556;53.500;10.176;2023-05-19T04:20:15;7.00;99.90
7030;DHT22;3556;53.500;10.176;2023-05-19T04:22:40;7.10;99.90
7030;DHT22;3556;53.500;10.176;2023-05-19T04:25:06;7.20;99.90
7030;DHT22;3556;53.500;10.176;2023-05-19T04:27:33;7.20;99.90
7030;DHT22;3556;53.500;10.176;2023-05-19T04:30:03;7.30;99.90
7030;DHT22;3556;53.500;10.176;2023-05-19T04:32:29;7.40;99.90
7030;DHT22;3556;53.500;10.176;2023-05-19T04:34:55;7.40;99.90
7030;DHT22;3556;53.500;10.176;2023-05-19T04:37:23;7.50;99.90
7030;DHT22;3556;53.500;10.176;2023-05-19T04:39:50;7.60;99.90
7030;DHT22;3556;53.500;10.176;2023-05-19T04:42:16;7.70;99.90
7030;DHT22;3556;53.500;10.176;2023-05-19T04:44:46;7.70;99.90
7030;DHT22;3556;53.500;10.176;2023-05-19T04:47:14;7.80;99.90
7030;DHT22;3556;53.500;10.176;2023-05-19T04:49:40;7.90;99.90
7030;DHT22;3556;53.500;10.176;2023-05-19T04:52:06;7.90;99.90
7030;DHT22;3556;53.500;10.176;2023-05-19T04:54:36;8.00;99.90
7030;DHT22;3556;53.500;10.176;2023-05-19T04:57:02;8.10;99.90
7030;DHT22;3556;53.500;10.176;2023-05-19T04:59:28;8.10;99.90
7030;DHT22;3556;53.500;10.176;2023-05-19T05:01:54;8.20;99.90
7030;DHT22;3556;53.500;10.176;2023-05-19T05:04:20;8.30;99.90
7030;DHT22;3556;53.500;10.176;2023-05-19T05:06:46;8.30;99.90
7030;DHT22;3556;53.500;10.176;2023-05-19T05:09:16;8.40;99.90
7030;DHT22;3556;53.500;10.176;2023-05-19T05:11:42;8.40;99.90
7030;DHT22;3556;53.500;10.176;2023-05-19T05:14:08;8.50;99.90
7030;DHT22;3556;53.500;10.176;2023-05-19T05:16:34;8.60;99.90
7030;DHT22;3556;53.500;10.176;2023-05-19T05:19:01;8.60;99.90
7030;DHT22;3556;53.500;10.176;2023-05-19T05:21:27;8.70;99.90
7030;DHT22;3556;53.500;10.176;2023-05-19T05:23:53;8.70;99.90
7030;DHT22;3556;53.500;10.176;2023-05-19T05:26:19;8.90;99.90
7030;DHT22;3556;53.500;10.176;2023-05-19T05:28:48;8.90;99.90
7030;DHT22;3556;53.500;10.176;2023-05-19T05:31:14;9.00;99.90
7030;DHT22;3556;53.500;10.176;2023-05-19T05:33:41;9.10;99.90
7030;DHT22;3556;53.500;10.176;2023-05-19T05:36:07;9.20;99.90
7030;DHT22;3556;53.500;10.176;2023-05-19T05:38:33;9.30;99.90
7030;DHT22;3556;53.500;10.176;2023-05-19T05:40:58;9.40;99.90
7030;DHT22;3556;53.500;10.176;2023-05-19T05:43:25;9.50;99.90
7030;DHT22;3556;53.500;10.176;2023-05-19T05:45:50;9.60;99.90
7030;DHT22;3556;53.500;10.176;2023-05-19T05:48:16;9.70;99.90
7030;DHT22;3556;53.500;10.176;2023-05-19T05:50:43;9.80;99.90
7030;DHT22;3556;53.500;10.176;2023-05-19T05:53:15;9.80;99.90
7030;DHT22;3556;53.500;10.176;2023-05-19T05:55:42;9.90;99.90
7030;DHT22;3556;53.500;10.176;2023-05-19T05:58:08;10.00;99.90
7030;DHT22;3556;53.500;10.176;2023-05-19T06:00:36;10.10;99.90
7030;DHT22;3556;53.500;10.176;2023-05-19T06:03:03;10.30;99.90
7030;DHT22;3556;53.500;10.176;2023-05-19T06:05:29;10.40;99.90
7030;DHT22;3556;53.500;10.176;2023-05-19T06:07:54;10.60;99.90
7030;DHT22;3556;53.500;10.176;2023-05-19T06:10:20;10.70;99.90
7030;DHT22;3556;53.500;10.176;2023-05-19T06:12:46;10.80;99.90
7030;DHT22;3556;53.500;10.176;2023-05-19T06:15:12;10.90;99.90
7030;DHT22;3556;53.500;10.176;2023-05-19T06:17:38;11.00;99.90
7030;DHT22;3556;53.500;10.176;2023-05-19T06:20:07;11.10;99.90
7030;DHT22;3556;53.500;10.176;2023-05-19T06:22:35;11.30;99.90
7030;DHT22;3556;53.500;10.176;2023-05-19T06:25:01;11.40;99.90
7030;DHT22;3556;53.500;10.176;2023-05-19T06:27:27;11.50;99.90
7030;DHT22;3556;53.500;10.176;2023-05-19T06:29:53;11.60;99.90
7030;DHT22;3556;53.500;10.176;2023-05-19T06:32:19;11.70;99.90
7030;DHT22;3556;53.500;10.176;2023-05-19T06:34:45;11.80;99.90
7030;DHT22;3556;53.500;10.176;2023-05-19T06:37:10;11.80;99.90
7030;DHT22;3556;53.500;10.176;2023-05-19T06:39:37;11.80;99.90
7030;DHT22;3556;53.500;10.176;2023-05-19T06:42:03;11.90;99.90
7030;DHT22;3556;53.500;10.176;2023-05-19T06:44:29;12.00;99.90
7030;DHT22;3556;53.500;10.176;2023-05-19T06:46:54;12.20;99.90
7030;DHT22;3556;53.500;10.176;2023-05-19T06:49:20;12.30;99.90
7030;DHT22;3556;53.500;10.176;2023-05-19T06:51:46;12.50;99.90
7030;DHT22;3556;53.500;10.176;2023-05-19T06:54:12;12.70;99.90
7030;DHT22;3556;53.500;10.176;2023-05-19T06:56:40;12.90;99.90
7030;DHT22;3556;53.500;10.176;2023-05-19T06:59:05;13.10;99.90
7030;DHT22;3556;53.500;10.176;2023-05-19T07:01:31;13.20;99.90
7030;DHT22;3556;53.500;10.176;2023-05-19T07:03:57;13.30;99.90
7030;DHT22;3556;53.500;10.176;2023-05-19T07:06:22;13.40;99.90
7030;DHT22;3556;53.500;10.176;2023-05-19T07:08:48;13.50;99.90
7030;DHT22;3556;53.500;10.176;2023-05-19T07:11:13;13.70;99.90
7030;DHT22;3556;53.500;10.176;2023-05-19T07:13:39;13.80;99.90
7030;DHT22;3556;53.500;10.176;2023-05-19T07:16:05;13.90;99.90
7030;DHT22;3556;53.500;10.176;2023-05-19T07:18:30;14.00;99.90
7030;DHT22;3556;53.500;10.176;2023-05-19T07:20:57;14.10;99.90
7030;DHT22;3556;53.500;10.176;2023-05-19T07:23:23;14.10;99.90
7030;DHT22;3556;53.500;10.176;2023-05-19T07:25:49;14.10;99.90
7030;DHT22;3556;53.500;10.176;2023-05-19T07:28:17;14.20;99.90
7030;DHT22;3556;53.500;10.176;2023-05-19T07:30:43;14.30;99.90
7030;DHT22;3556;53.500;10.176;2023-05-19T07:33:09;14.40;99.90
7030;DHT22;3556;53.500;10.176;2023-05-19T07:35:35;14.50;99.90
7030;DHT22;3556;53.500;10.176;2023-05-19T07:38:01;14.60;99.90
7030;DHT22;3556;53.500;10.176;2023-05-19T07:40:27;14.70;99.90
7030;DHT22;3556;53.500;10.176;2023-05-19T07:42:52;14.80;99.90
7030;DHT22;3556;53.500;10.176;2023-05-19T07:45:18;14.90;99.90
7030;DHT22;3556;53.500;10.176;2023-05-19T07:47:44;15.10;99.90
7030;DHT22;3556;53.500;10.176;2023-05-19T07:50:09;15.20;99.90
7030;DHT22;3556;53.500;10.176;2023-05-19T07:52:35;15.20;99.90
7030;DHT22;3556;53.500;10.176;2023-05-19T07:55:01;15.30;99.90
7030;DHT22;3556;53.500;10.176;2023-05-19T07:57:26;15.40;99.90
7030;DHT22;3556;53.500;10.176;2023-05-19T07:59:52;15.50;99.90
7030;DHT22;3556;53.500;10.176;2023-05-19T08:02:17;15.60;99.90
7030;DHT22;3556;53.500;10.176;2023-05-19T08:04:43;15.70;99.90
7030;DHT22;3556;53.500;10.176;2023-05-19T08:07:09;15.80;99.90
7030;DHT22;3556;53.500;10.176;2023-05-19T08:09:34;15.90;99.90
7030;DHT22;3556;53.500;10.176;2023-05-19T08:12:00;16.10;99.90
7030;DHT22;3556;53.500;10.176;2023-05-19T08:14:26;16.20;99.90
7030;DHT22;3556;53.500;10.176;2023-05-19T08:16:52;16.40;99.90
7030;DHT22;3556;53.500;10.176;2023-05-19T08:19:17;16.60;99.50
7030;DHT22;3556;53.500;10.176;2023-05-19T08:21:43;16.80;97.20
7030;DHT22;3556;53.500;10.176;2023-05-19T08:24:09;16.90;96.30
7030;DHT22;3556;53.500;10.176;2023-05-19T08:26:35;17.00;95.70
7030;DHT22;3556;53.500;10.176;2023-05-19T08:29:01;17.00;95.00
7030;DHT22;3556;53.500;10.176;2023-05-19T08:31:27;17.10;95.40
7030;DHT22;3556;53.500;10.176;2023-05-19T08:33:52;17.10;94.80
7030;DHT22;3556;53.500;10.176;2023-05-19T08:36:18;17.20;94.30
7030;DHT22;3556;53.500;10.176;2023-05-19T08:38:44;17.20;94.20
7030;DHT22;3556;53.500;10.176;2023-05-19T08:41:10;17.40;94.30
7030;DHT22;3556;53.500;10.176;2023-05-19T08:43:36;17.50;94.80
7030;DHT22;3556;53.500;10.176;2023-05-19T08:46:03;17.60;94.40
7030;DHT22;3556;53.500;10.176;2023-05-19T08:48:29;17.70;93.40
7030;DHT22;3556;53.500;10.176;2023-05-19T08:53:38;17.90;93.30
7030;DHT22;3556;53.500;10.176;2023-05-19T08:58:37;18.00;93.20
7030;DHT22;3556;53.500;10.176;2023-05-19T09:01:03;18.00;92.70
7030;DHT22;3556;53.500;10.176;2023-05-19T09:03:32;18.10;92.00
7030;DHT22;3556;53.500;10.176;2023-05-19T09:06:06;18.10;92.10
7030;DHT22;3556;53.500;10.176;2023-05-19T09:08:33;18.20;92.80
7030;DHT22;3556;53.500;10.176;2023-05-19T09:10:59;18.40;92.40
7030;DHT22;3556;53.500;10.176;2023-05-19T09:13:25;18.60;92.00
7030;DHT22;3556;53.500;10.176;2023-05-19T09:15:52;18.70;91.80
7030;DHT22;3556;53.500;10.176;2023-05-19T09:18:18;18.90;91.20
7030;DHT22;3556;53.500;10.176;2023-05-19T09:20:44;19.00;88.20
7030;DHT22;3556;53.500;10.176;2023-05-19T09:23:14;19.00;85.90
7030;DHT22;3556;53.500;10.176;2023-05-19T09:25:51;19.00;87.80
7030;DHT22;3556;53.500;10.176;2023-05-19T09:28:28;19.10;85.90
7030;DHT22;3556;53.500;10.176;2023-05-19T09:31:12;19.10;88.10
7030;DHT22;3556;53.500;10.176;2023-05-19T09:33:40;19.20;87.60
7030;DHT22;3556;53.500;10.176;2023-05-19T09:36:07;19.30;86.50
7030;DHT22;3556;53.500;10.176;2023-05-19T09:38:37;19.30;83.40
7030;DHT22;3556;53.500;10.176;2023-05-19T09:41:05;19.30;84.90
7030;DHT22;3556;53.500;10.176;2023-05-19T09:43:32;19.30;83.90
7030;DHT22;3556;53.500;10.176;2023-05-19T09:46:10;19.30;85.40
7030;DHT22;3556;53.500;10.176;2023-05-19T09:48:36;19.30;86.20
7030;DHT22;3556;53.500;10.176;2023-05-19T09:51:03;19.30;84.70
7030;DHT22;3556;53.500;10.176;2023-05-19T09:53:30;19.30;84.80
7030;DHT22;3556;53.500;10.176;2023-05-19T09:55:57;19.40;83.30
7030;DHT22;3556;53.500;10.176;2023-05-19T09:58:23;19.30;84.60
7030;DHT22;3556;53.500;10.176;2023-05-19T10:00:49;19.40;85.80
7030;DHT22;3556;53.500;10.176;2023-05-19T10:03:15;19.50;84.40
7030;DHT22;3556;53.500;10.176;2023-05-19T10:05:42;19.60;84.70
7030;DHT22;3556;53.500;10.176;2023-05-19T10:08:08;19.70;85.20
7030;DHT22;3556;53.500;10.176;2023-05-19T10:10:36;19.80;82.70
7030;DHT22;3556;53.500;10.176;2023-05-19T10:13:03;19.90;80.90
7030;DHT22;3556;53.500;10.176;2023-05-19T10:15:28;19.90;82.90
7030;DHT22;3556;53.500;10.176;2023-05-19T10:17:55;20.00;81.70
7030;DHT22;3556;53.500;10.176;2023-05-19T10:20:21;20.10;82.00
7030;DHT22;3556;53.500;10.176;2023-05-19T10:22:47;20.10;82.20
7030;DHT22;3556;53.500;10.176;2023-05-19T10:25:14;20.20;80.80
7030;DHT22;3556;53.500;10.176;2023-05-19T10:27:43;20.40;80.80
7030;DHT22;3556;53.500;10.176;2023-05-19T10:30:16;20.60;79.00
7030;DHT22;3556;53.500;10.176;2023-05-19T10:32:43;20.60;80.00
7030;DHT22;3556;53.500;10.176;2023-05-19T10:44:02;21.30;74.90
7030;DHT22;3556;53.500;10.176;2023-05-19T10:46:30;21.40;73.10
7030;DHT22;3556;53.500;10.176;2023-05-19T10:48:56;21.20;74.80
7030;DHT22;3556;53.500;10.176;2023-05-19T10:51:32;21.20;75.50
7030;DHT22;3556;53.500;10.176;2023-05-19T10:54:00;21.20;75.80
7030;DHT22;3556;53.500;10.176;2023-05-19T10:56:29;21.40;73.60
7030;DHT22;3556;53.500;10.176;2023-05-19T10:58:55;21.60;72.80
7030;DHT22;3556;53.500;10.176;2023-05-19T11:01:21;21.70;71.70
7030;DHT22;3556;53.500;10.176;2023-05-19T11:03:49;21.80;71.60
7030;DHT22;3556;53.500;10.176;2023-05-19T11:06:27;21.90;72.50
7030;DHT22;3556;53.500;10.176;2023-05-19T11:08:58;21.90;69.80
7030;DHT22;3556;53.500;10.176;2023-05-19T11:11:25;22.00;70.20
7030;DHT22;3556;53.500;10.176;2023-05-19T11:13:55;22.20;69.20
7030;DHT22;3556;53.500;10.176;2023-05-19T11:16:47;22.30;72.20
7030;DHT22;3556;53.500;10.176;2023-05-19T11:19:28;22.50;69.00
7030;DHT22;3556;53.500;10.176;2023-05-19T11:21:55;22.70;70.30
7030;DHT22;3556;53.500;10.176;2023-05-19T11:24:43;22.90;68.50
7030;DHT22;3556;53.500;10.176;2023-05-19T11:27:29;23.00;68.00
7030;DHT22;3556;53.500;10.176;2023-05-19T11:30:00;22.90;67.20
7030;DHT22;3556;53.500;10.176;2023-05-19T11:32:28;22.70;66.70
7030;DHT22;3556;53.500;10.176;2023-05-19T11:34:55;22.30;64.80
7030;DHT22;3556;53.500;10.176;2023-05-19T11:37:21;21.90;66.80
7030;DHT22;3556;53.500;10.176;2023-05-19T11:39:47;21.80;66.70
7030;DHT22;3556;53.500;10.176;2023-05-19T11:42:13;22.00;67.60
7030;DHT22;3556;53.500;10.176;2023-05-19T11:44:39;22.30;67.50
7030;DHT22;3556;53.500;10.176;2023-05-19T11:47:10;22.60;63.40
7030;DHT22;3556;53.500;10.176;2023-05-19T11:49:36;22.90;63.00
7030;DHT22;3556;53.500;10.176;2023-05-19T11:52:03;22.90;63.40
7030;DHT22;3556;53.500;10.176;2023-05-19T11:54:30;22.70;61.90
7030;DHT22;3556;53.500;10.176;2023-05-19T11:56:59;22.50;62.90
7030;DHT22;3556;53.500;10.176;2023-05-19T11:59:34;22.30;63.00
7030;DHT22;3556;53.500;10.176;2023-05-19T12:02:34;22.20;65.30
7030;DHT22;3556;53.500;10.176;2023-05-19T12:04:54;22.40;66.80
7030;DHT22;3556;53.500;10.176;2023-05-19T12:07:23;22.90;61.80
7030;DHT22;3556;53.500;10.176;2023-05-19T12:09:50;23.20;62.20
7030;DHT22;3556;53.500;10.176;2023-05-19T12:12:20;23.50;60.40
7030;DHT22;3556;53.500;10.176;2023-05-19T12:14:46;23.50;58.70
7030;DHT22;3556;53.500;10.176;2023-05-19T12:17:14;23.30;62.30
7030;DHT22;3556;53.500;10.176;2023-05-19T12:19:41;23.00;55.70
7030;DHT22;3556;53.500;10.176;2023-05-19T12:22:07;22.70;57.40
7030;DHT22;3556;53.500;10.176;2023-05-19T12:24:35;22.50;58.30
7030;DHT22;3556;53.500;10.176;2023-05-19T12:27:23;22.50;57.00
7030;DHT22;3556;53.500;10.176;2023-05-19T12:29:55;22.60;60.80
7030;DHT22;3556;53.500;10.176;2023-05-19T12:32:27;22.40;59.00
7030;DHT22;3556;53.500;10.176;2023-05-19T12:34:56;22.30;58.90
7030;DHT22;3556;53.500;10.176;2023-05-19T12:37:25;22.10;60.30
7030;DHT22;3556;53.500;10.176;2023-05-19T12:39:52;22.00;59.90
7030;DHT22;3556;53.500;10.176;2023-05-19T12:42:18;21.90;60.70
7030;DHT22;3556;53.500;10.176;2023-05-19T12:44:47;22.10;61.40
7030;DHT22;3556;53.500;10.176;2023-05-19T12:47:18;22.50;61.00
7030;DHT22;3556;53.500;10.176;2023-05-19T12:49:54;23.00;60.60
7030;DHT22;3556;53.500;10.176;2023-05-19T12:52:21;23.50;57.20
7030;DHT22;3556;53.500;10.176;2023-05-19T12:54:48;24.00;57.00
7030;DHT22;3556;53.500;10.176;2023-05-19T12:57:15;24.40;55.60
7030;DHT22;3556;53.500;10.176;2023-05-19T12:59:41;24.30;56.60
7030;DHT22;3556;53.500;10.176;2023-05-19T13:02:07;24.10;57.60
7030;DHT22;3556;53.500;10.176;2023-05-19T13:04:33;23.90;58.20
7030;DHT22;3556;53.500;10.176;2023-05-19T13:06:58;23.70;58.40
7030;DHT22;3556;53.500;10.176;2023-05-19T13:09:24;23.70;58.30
7030;DHT22;3556;53.500;10.176;2023-05-19T13:11:51;24.00;57.30
7030;DHT22;3556;53.500;10.176;2023-05-19T13:14:18;24.40;57.10
7030;DHT22;3556;53.500;10.176;2023-05-19T13:16:45;24.60;57.10
7030;DHT22;3556;53.500;10.176;2023-05-19T13:19:13;24.40;57.40
7030;DHT22;3556;53.500;10.176;2023-05-19T13:21:38;24.00;57.50
7030;DHT22;3556;53.500;10.176;2023-05-19T13:24:04;23.70;57.80
7030;DHT22;3556;53.500;10.176;2023-05-19T13:26:30;23.60;60.30
7030;DHT22;3556;53.500;10.176;2023-05-19T13:28:55;23.60;59.20
7030;DHT22;3556;53.500;10.176;2023-05-19T13:31:21;24.10;57.80
7030;DHT22;3556;53.500;10.176;2023-05-19T13:33:47;24.50;57.70
7030;DHT22;3556;53.500;10.176;2023-05-19T13:36:12;24.90;56.40
7030;DHT22;3556;53.500;10.176;2023-05-19T13:38:38;25.00;57.40
7030;DHT22;3556;53.500;10.176;2023-05-19T13:41:06;25.00;56.20
7030;DHT22;3556;53.500;10.176;2023-05-19T13:43:32;24.70;57.20
7030;DHT22;3556;53.500;10.176;2023-05-19T13:45:57;24.10;55.90
7030;DHT22;3556;53.500;10.176;2023-05-19T13:48:23;23.70;57.10
7030;DHT22;3556;53.500;10.176;2023-05-19T13:50:49;23.00;59.00
7030;DHT22;3556;53.500;10.176;2023-05-19T13:53:16;22.60;58.90
7030;DHT22;3556;53.500;10.176;2023-05-19T13:55:42;22.30;59.50
7030;DHT22;3556;53.500;10.176;2023-05-19T13:58:08;22.10;62.30
7030;DHT22;3556;53.500;10.176;2023-05-19T14:00:35;21.80;61.50
7030;DHT22;3556;53.500;10.176;2023-05-19T14:03:01;21.70;61.00
7030;DHT22;3556;53.500;10.176;2023-05-19T14:05:27;21.50;62.40
7030;DHT22;3556;53.500;10.176;2023-05-19T14:07:53;21.40;64.00
7030;DHT22;3556;53.500;10.176;2023-05-19T14:10:19;21.50;64.40
7030;DHT22;3556;53.500;10.176;2023-05-19T14:12:45;21.90;65.30
7030;DHT22;3556;53.500;10.176;2023-05-19T14:15:11;22.40;62.60
7030;DHT22;3556;53.500;10.176;2023-05-19T14:17:36;22.60;62.80
7030;DHT22;3556;53.500;10.176;2023-05-19T14:20:02;22.70;61.00
7030;DHT22;3556;53.500;10.176;2023-05-19T14:22:28;22.90;60.60
7030;DHT22;3556;53.500;10.176;2023-05-19T14:24:54;23.00;61.40
7030;DHT22;3556;53.500;10.176;2023-05-19T14:27:19;22.90;59.80
7030;DHT22;3556;53.500;10.176;2023-05-19T14:29:45;22.70;62.50
7030;DHT22;3556;53.500;10.176;2023-05-19T14:32:11;22.50;62.50
7030;DHT22;3556;53.500;10.176;2023-05-19T14:34:36;22.50;63.30
7030;DHT22;3556;53.500;10.176;2023-05-19T14:37:02;22.30;63.10
7030;DHT22;3556;53.500;10.176;2023-05-19T14:39:28;22.20;64.60
7030;DHT22;3556;53.500;10.176;2023-05-19T14:41:55;22.10;65.10
7030;DHT22;3556;53.500;10.176;2023-05-19T14:44:20;22.00;65.40
7030;DHT22;3556;53.500;10.176;2023-05-19T14:46:46;21.80;65.80
7030;DHT22;3556;53.500;10.176;2023-05-19T14:49:11;21.70;64.80
7030;DHT22;3556;53.500;10.176;2023-05-19T14:51:37;21.60;65.40
7030;DHT22;3556;53.500;10.176;2023-05-19T14:54:03;21.60;66.20
7030;DHT22;3556;53.500;10.176;2023-05-19T14:56:28;21.70;66.60
7030;DHT22;3556;53.500;10.176;2023-05-19T14:58:54;21.70;65.70
7030;DHT22;3556;53.500;10.176;2023-05-19T15:01:19;21.80;66.30
7030;DHT22;3556;53.500;10.176;2023-05-19T15:03:45;22.00;65.60
7030;DHT22;3556;53.500;10.176;2023-05-19T15:06:11;22.20;65.30
7030;DHT22;3556;53.500;10.176;2023-05-19T15:08:36;22.40;63.20
7030;DHT22;3556;53.500;10.176;2023-05-19T15:11:03;22.60;63.50
7030;DHT22;3556;53.500;10.176;2023-05-19T15:13:29;22.50;63.00
7030;DHT22;3556;53.500;10.176;2023-05-19T15:15:54;22.30;62.90
7030;DHT22;3556;53.500;10.176;2023-05-19T15:18:20;22.00;64.90
7030;DHT22;3556;53.500;10.176;2023-05-19T15:20:47;21.80;65.00
7030;DHT22;3556;53.500;10.176;2023-05-19T15:23:13;21.70;64.80
7030;DHT22;3556;53.500;10.176;2023-05-19T15:25:38;21.70;66.40
7030;DHT22;3556;53.500;10.176;2023-05-19T15:28:04;21.80;66.30
7030;DHT22;3556;53.500;10.176;2023-05-19T15:30:30;21.90;65.70
7030;DHT22;3556;53.500;10.176;2023-05-19T15:32:55;21.90;65.70
7030;DHT22;3556;53.500;10.176;2023-05-19T15:35:21;21.80;66.70
7030;DHT22;3556;53.500;10.176;2023-05-19T15:37:47;21.70;65.90
7030;DHT22;3556;53.500;10.176;2023-05-19T15:40:12;21.60;66.70
7030;DHT22;3556;53.500;10.176;2023-05-19T15:42:38;21.50;66.10
7030;DHT22;3556;53.500;10.176;2023-05-19T15:45:04;21.50;66.20
7030;DHT22;3556;53.500;10.176;2023-05-19T15:47:32;21.40;66.60
7030;DHT22;3556;53.500;10.176;2023-05-19T15:49:57;21.20;66.90
7030;DHT22;3556;53.500;10.176;2023-05-19T15:52:23;21.20;66.70
7030;DHT22;3556;53.500;10.176;2023-05-19T15:54:48;21.00;66.50
7030;DHT22;3556;53.500;10.176;2023-05-19T15:57:14;20.90;68.40
7030;DHT22;3556;53.500;10.176;2023-05-19T15:59:40;20.90;67.80
7030;DHT22;3556;53.500;10.176;2023-05-19T16:02:05;20.90;66.70
7030;DHT22;3556;53.500;10.176;2023-05-19T16:04:31;20.80;66.90
7030;DHT22;3556;53.500;10.176;2023-05-19T16:06:57;20.70;67.60
7030;DHT22;3556;53.500;10.176;2023-05-19T16:09:23;20.60;68.00
7030;DHT22;3556;53.500;10.176;2023-05-19T16:11:48;20.60;69.10
7030;DHT22;3556;53.500;10.176;2023-05-19T16:14:14;20.60;67.70
7030;DHT22;3556;53.500;10.176;2023-05-19T16:16:40;20.40;68.40
7030;DHT22;3556;53.500;10.176;2023-05-19T16:19:05;20.20;68.80